sensor_id;sensor_type;location;lat;lon;timestamp;temperature;humidity
43920;DHT22;29578;51.946;5.874;2023-11-22T00:00:45;4.50;93.70
43920;DHT22;29578;51.946;5.874;2023-11-22T00:03:10;4.50;93.60
43920;DHT22;29578;51.946;5.874;2023-11-22T00:05:36;4.50;93.70
43920;DHT22;29578;51.946;5.874;2023-11-22T00:08:02;4.60;93.70
43920;DHT22;29578;51.946;5.874;2023-11-22T00:10:28;4.60;93.60
43920;DHT22;29578;51.946;5.874;2023-11-22T00:12:54;4.60;93.60
43920;DHT22;29578;51.946;5.874;2023-11-22T00:15:19;4.50;93.60
43920;DHT22;29578;51.946;5.874;2023-11-22T00:17:45;4.60;93.60
43920;DHT22;29578;51.946;5.874;2023-11-22T00:20:11;4.60;93.60
43920;DHT22;29578;51.946;5.874;2023-11-22T00:22:37;4.60;93.60
43920;DHT22;29578;51.946;5.874;2023-11-22T00:25:03;4.50;93.50
43920;DHT22;29578;51.946;5.874;2023-11-22T00:27:30;4.50;93.60
43920;DHT22;29578;51.946;5.874;2023-11-22T00:29:57;4.50;93.60
43920;DHT22;29578;51.946;5.874;2023-11-22T00:32:23;4.50;93.60
43920;DHT22;29578;51.946;5.874;2023-11-22T00:34:49;4.50;93.60
43920;DHT22;29578;51.946;5.874;2023-11-22T00:37:15;4.50;93.60
43920;DHT22;29578;51.946;5.874;2023-11-22T00:39:41;4.50;93.60
43920;DHT22;29578;51.946;5.874;2023-11-22T00:42:07;4.50;93.60
43920;DHT22;29578;51.946;5.874;2023-11-22T00:44:33;4.50;93.60
43920;DHT22;29578;51.946;5.874;2023-11-22T00:47:00;4.50;93.50
43920;DHT22;29578;51.946;5.874;2023-11-22T00:49:26;4.50;93.50
43920;DHT22;29578;51.946;5.874;2023-11-22T00:51:51;4.50;93.50
43920;DHT22;29578;51.946;5.874;2023-11-22T00:54:17;4.50;93.50
43920;DHT22;29578;51.946;5.874;2023-11-22T00:56:45;4.50;93.50
43920;DHT22;29578;51.946;5.874;2023-11-22T00:59:11;4.50;93.50
43920;DHT22;29578;51.946;5.874;2023-11-22T01:01:37;4.50;93.50
43920;DHT22;29578;51.946;5.874;2023-11-22T01:04:03;4.50;93.50
43920;DHT22;29578;51.946;5.874;2023-11-22T01:06:30;4.50;93.60
43920;DHT22;29578;51.946;5.874;2023-11-22T01:08:57;4.40;93.50
43920;DHT22;29578;51.946;5.874;2023-11-22T01:11:23;4.60;93.60
43920;DHT22;29578;51.946;5.874;2023-11-22T01:13:49;4.50;93.60
43920;DHT22;29578;51.946;5.874;2023-11-22T01:16:15;4.40;93.60
43920;DHT22;29578;51.946;5.874;2023-11-22T01:18:41;4.50;93.60
43920;DHT22;29578;51.946;5.874;2023-11-22T01:21:07;4.50;93.60
43920;DHT22;29578;51.946;5.874;2023-11-22T01:23:33;4.40;93.50
43920;DHT22;29578;51.946;5.874;2023-11-22T01:25:59;4.40;93.50
43920;DHT22;29578;51.946;5.874;2023-11-22T01:28:27;4.40;93.50
43920;DHT22;29578;51.946;5.874;2023-11-22T01:30:53;4.40;93.50
43920;DHT22;29578;51.946;5.874;2023-11-22T01:33:20;4.40;93.50
43920;DHT22;29578;51.946;5.874;2023-11-22T01:35:46;4.40;93.50
43920;DHT22;29578;51.946;5.874;2023-11-22T01:38:12;4.40;93.50
43920;DHT22;29578;51.946;5.874;2023-11-22T01:40:45;4.40;93.60
43920;DHT22;29578;51.946;5.874;2023-11-22T01:43:18;4.40;93.50
43920;DHT22;29578;51.946;5.874;2023-11-22T01:45:43;4.30;93.50
43920;DHT22;29578;51.946;5.874;2023-11-22T01:48:11;4.30;93.60
43920;DHT22;29578;51.946;5.874;2023-11-22T01:50:38;4.30;93.60
43920;DHT22;29578;51.946;5.874;2023-11-22T01:53:07;4.30;93.60
43920;DHT22;29578;51.946;5.874;2023-11-22T01:55:34;4.30;93.60
43920;DHT22;29578;51.946;5.874;2023-11-22T01:58:00;4.20;93.60
43920;DHT22;29578;51.946;5.874;2023-11-22T02:00:32;4.20;93.60
43920;DHT22;29578;51.946;5.874;2023-11-22T02:03:01;4.20;93.60
43920;DHT22;29578;51.946;5.874;2023-11-22T02:05:27;4.10;93.60
43920;DHT22;29578;51.946;5.874;2023-11-22T02:07:53;4.10;93.60
43920;DHT22;29578;51.946;5.874;2023-11-22T02:10:19;4.10;93.60
43920;DHT22;29578;51.946;5.874;2023-11-22T02:12:44;4.10;93.60
43920;DHT22;29578;51.946;5.874;2023-11-22T02:15:10;4.10;93.60
43920;DHT22;29578;51.946;5.874;2023-11-22T02:17:36;4.10;93.60
43920;DHT22;29578;51.946;5.874;2023-11-22T02:20:03;4.00;93.60
43920;DHT22;29578;51.946;5.874;2023-11-22T02:22:32;4.00;93.70
43920;DHT22;29578;51.946;5.874;2023-11-22T02:24:57;3.90;93.60
43920;DHT22;29578;51.946;5.874;2023-11-22T02:27:23;4.00;93.70
43920;DHT22;29578;51.946;5.874;2023-11-22T02:29:49;3.90;93.70
43920;DHT22;29578;51.946;5.874;2023-11-22T02:32:15;3.90;93.70
43920;DHT22;29578;51.946;5.874;2023-11-22T02:34:41;3.90;93.70
43920;DHT22;29578;51.946;5.874;2023-11-22T02:37:07;3.90;93.60
43920;DHT22;29578;51.946;5.874;2023-11-22T02:39:45;3.90;93.70
43920;DHT22;29578;51.946;5.874;2023-11-22T02:42:13;3.90;93.70
43920;DHT22;29578;51.946;5.874;2023-11-22T02:44:39;3.80;93.70
43920;DHT22;29578;51.946;5.874;2023-11-22T02:47:05;3.80;93.70
43920;DHT22;29578;51.946;5.874;2023-11-22T02:49:31;3.80;93.70
43920;DHT22;29578;51.946;5.874;2023-11-22T02:51:56;3.80;93.70
43920;DHT22;29578;51.946;5.874;2023-11-22T02:54:22;3.80;93.70
43920;DHT22;29578;51.946;5.874;2023-11-22T02:56:48;3.80;93.70
43920;DHT22;29578;51.946;5.874;2023-11-22T02:59:13;3.80;93.70
43920;DHT22;29578;51.946;5.874;2023-11-22T03:01:39;3.70;93.70
43920;DHT22;29578;51.946;5.874;2023-11-22T03:04:08;3.70;93.70
43920;DHT22;29578;51.946;5.874;2023-11-22T03:06:34;3.70;93.70
43920;DHT22;29578;51.946;5.874;2023-11-22T03:09:01;3.80;93.70
43920;DHT22;29578;51.946;5.874;2023-11-22T03:11:27;3.70;93.70
43920;DHT22;29578;51.946;5.874;2023-11-22T03:13:53;3.70;93.70
43920;DHT22;29578;51.946;5.874;2023-11-22T03:16:19;3.70;93.70
43920;DHT22;29578;51.946;5.874;2023-11-22T03:18:44;3.60;93.70
43920;DHT22;29578;51.946;5.874;2023-11-22T03:21:10;3.60;93.70
43920;DHT22;29578;51.946;5.874;2023-11-22T03:23:36;3.60;93.70
43920;DHT22;29578;51.946;5.874;2023-11-22T03:26:01;3.60;93.70
43920;DHT22;29578;51.946;5.874;2023-11-22T03:28:29;3.50;93.70
43920;DHT22;29578;51.946;5.874;2023-11-22T03:30:56;3.60;93.70
43920;DHT22;29578;51.946;5.874;2023-11-22T03:33:22;3.50;93.70
43920;DHT22;29578;51.946;5.874;2023-11-22T03:35:47;3.60;93.70
43920;DHT22;29578;51.946;5.874;2023-11-22T03:38:13;3.50;93.70
43920;DHT22;29578;51.946;5.874;2023-11-22T03:40:39;3.50;93.70
43920;DHT22;29578;51.946;5.874;2023-11-22T03:43:05;3.50;93.70
43920;DHT22;29578;51.946;5.874;2023-11-22T03:45:33;3.50;93.70
43920;DHT22;29578;51.946;5.874;2023-11-22T03:47:59;3.40;93.70
43920;DHT22;29578;51.946;5.874;2023-11-22T03:50:24;3.40;93.70
43920;DHT22;29578;51.946;5.874;2023-11-22T03:52:51;3.40;93.80
43920;DHT22;29578;51.946;5.874;2023-11-22T03:55:16;3.40;93.80
43920;DHT22;29578;51.946;5.874;2023-11-22T03:57:42;3.30;93.70
43920;DHT22;29578;51.946;5.874;2023-11-22T04:00:09;3.30;93.70
43920;DHT22;29578;51.946;5.874;2023-11-22T04:02:35;3.40;93.80
43920;DHT22;29578;51.946;5.874;2023-11-22T04:05:03;3.30;93.80
43920;DHT22;29578;51.946;5.874;2023-11-22T04:07:28;3.30;93.80
43920;DHT22;29578;51.946;5.874;2023-11-22T04:09:54;3.30;93.80
43920;DHT22;29578;51.946;5.874;2023-11-22T04:12:21;3.30;93.80
43920;DHT22;29578;51.946;5.874;2023-11-22T04:14:47;3.30;93.80
43920;DHT22;29578;51.946;5.874;2023-11-22T04:17:13;3.20;93.80
43920;DHT22;29578;51.946;5.874;2023-11-22T04:19:39;3.20;93.80
43920;DHT22;29578;51.946;5.874;2023-11-22T04:22:05;3.20;93.80
43920;DHT22;29578;51.946;5.874;2023-11-22T04:24:30;3.10;93.80
43920;DHT22;29578;51.946;5.874;2023-11-22T04:26:58;3.10;93.80
43920;DHT22;29578;51.946;5.874;2023-11-22T04:29:23;3.00;93.80
43920;DHT22;29578;51.946;5.874;2023-11-22T04:31:49;3.00;93.80
43920;DHT22;29578;51.946;5.874;2023-11-22T04:34:15;2.90;93.80
43920;DHT22;29578;51.946;5.874;2023-11-22T04:36:41;2.90;93.80
43920;DHT22;29578;51.946;5.874;2023-11-22T04:39:07;2.90;93.90
43920;DHT22;29578;51.946;5.874;2023-11-22T04:41:33;2.80;93.90
43920;DHT22;29578;51.946;5.874;2023-11-22T04:43:59;2.70;93.80
43920;DHT22;29578;51.946;5.874;2023-11-22T04:46:25;2.80;93.90
43920;DHT22;29578;51.946;5.874;2023-11-22T04:48:51;2.70;93.90
43920;DHT22;29578;51.946;5.874;2023-11-22T04:51:17;2.60;93.90
43920;DHT22;29578;51.946;5.874;2023-11-22T04:53:43;2.60;93.90
43920;DHT22;29578;51.946;5.874;2023-11-22T04:56:09;2.60;94.00
43920;DHT22;29578;51.946;5.874;2023-11-22T04:58:35;2.50;93.90
43920;DHT22;29578;51.946;5.874;2023-11-22T05:01:01;2.60;94.00
43920;DHT22;29578;51.946;5.874;2023-11-22T05:03:27;2.50;94.00
43920;DHT22;29578;51.946;5.874;2023-11-22T05:05:53;2.40;94.00
43920;DHT22;29578;51.946;5.874;2023-11-22T05:08:18;2.40;94.00
43920;DHT22;29578;51.946;5.874;2023-11-22T05:10:44;2.40;94.00
43920;DHT22;29578;51.946;5.874;2023-11-22T05:13:10;2.30;94.00
43920;DHT22;29578;51.946;5.874;2023-11-22T05:15:36;2.20;94.00
43920;DHT22;29578;51.946;5.874;2023-11-22T05:18:02;2.30;94.00
43920;DHT22;29578;51.946;5.874;2023-11-22T05:20:28;2.20;94.20
43920;DHT22;29578;51.946;5.874;2023-11-22T05:22:53;2.30;94.00
43920;DHT22;29578;51.946;5.874;2023-11-22T05:25:19;2.30;94.00
43920;DHT22;29578;51.946;5.874;2023-11-22T05:27:45;2.30;94.00
43920;DHT22;29578;51.946;5.874;2023-11-22T05:30:11;2.20;94.00
43920;DHT22;29578;51.946;5.874;2023-11-22T05:32:37;2.20;93.90
43920;DHT22;29578;51.946;5.874;2023-11-22T05:35:03;2.30;93.90
43920;DHT22;29578;51.946;5.874;2023-11-22T05:37:31;2.20;93.90
43920;DHT22;29578;51.946;5.874;2023-11-22T05:39:57;2.20;93.90
43920;DHT22;29578;51.946;5.874;2023-11-22T05:42:24;2.30;93.90
43920;DHT22;29578;51.946;5.874;2023-11-22T05:44:50;2.20;93.90
43920;DHT22;29578;51.946;5.874;2023-11-22T05:47:16;2.30;93.90
43920;DHT22;29578;51.946;5.874;2023-11-22T05:49:43;2.30;93.80
43920;DHT22;29578;51.946;5.874;2023-11-22T05:52:09;2.30;93.80
43920;DHT22;29578;51.946;5.874;2023-11-22T05:54:35;2.30;93.80
43920;DHT22;29578;51.946;5.874;2023-11-22T05:57:02;2.30;93.80
43920;DHT22;29578;51.946;5.874;2023-11-22T05:59:27;2.30;93.80
43920;DHT22;29578;51.946;5.874;2023-11-22T06:01:53;2.30;93.80
43920;DHT22;29578;51.946;5.874;2023-11-22T06:04:19;2.30;93.80
43920;DHT22;29578;51.946;5.874;2023-11-22T06:06:45;2.40;93.80
43920;DHT22;29578;51.946;5.874;2023-11-22T06:09:11;2.40;93.80
43920;DHT22;29578;51.946;5.874;2023-11-22T06:11:40;2.40;93.70
43920;DHT22;29578;51.946;5.874;2023-11-22T06:14:05;2.40;93.70
43920;DHT22;29578;51.946;5.874;2023-11-22T06:16:32;2.40;93.70
43920;DHT22;29578;51.946;5.874;2023-11-22T06:18:58;2.40;93.70
43920;DHT22;29578;51.946;5.874;2023-11-22T06:21:23;2.50;93.70
43920;DHT22;29578;51.946;5.874;2023-11-22T06:23:53;2.50;93.70
43920;DHT22;29578;51.946;5.874;2023-11-22T06:26:20;2.50;94.00
43920;DHT22;29578;51.946;5.874;2023-11-22T06:28:46;2.50;93.70
43920;DHT22;29578;51.946;5.874;2023-11-22T06:31:14;2.50;93.60
43920;DHT22;29578;51.946;5.874;2023-11-22T06:33:40;2.50;93.60
43920;DHT22;29578;51.946;5.874;2023-11-22T06:36:06;2.40;93.60
43920;DHT22;29578;51.946;5.874;2023-11-22T06:38:32;2.50;93.60
43920;DHT22;29578;51.946;5.874;2023-11-22T06:40:58;2.50;93.60
43920;DHT22;29578;51.946;5.874;2023-11-22T06:43:23;2.50;93.60
43920;DHT22;29578;51.946;5.874;2023-11-22T06:45:49;2.50;93.60
43920;DHT22;29578;51.946;5.874;2023-11-22T06:48:16;2.50;93.60
43920;DHT22;29578;51.946;5.874;2023-11-22T06:50:42;2.50;93.60
43920;DHT22;29578;51.946;5.874;2023-11-22T06:53:08;2.60;93.60
43920;DHT22;29578;51.946;5.874;2023-11-22T06:55:33;2.60;93.60
43920;DHT22;29578;51.946;5.874;2023-11-22T06:57:59;2.60;93.60
43920;DHT22;29578;51.946;5.874;2023-11-22T07:00:24;2.60;93.60
43920;DHT22;29578;51.946;5.874;2023-11-22T07:02:53;2.60;93.60
43920;DHT22;29578;51.946;5.874;2023-11-22T07:05:18;2.70;93.60
43920;DHT22;29578;51.946;5.874;2023-11-22T07:07:44;2.70;93.60
43920;DHT22;29578;51.946;5.874;2023-11-22T07:10:10;2.70;93.50
43920;DHT22;29578;51.946;5.874;2023-11-22T07:12:37;2.80;93.50
43920;DHT22;29578;51.946;5.874;2023-11-22T07:15:03;2.70;93.50
43920;DHT22;29578;51.946;5.874;2023-11-22T07:17:31;2.70;93.50
43920;DHT22;29578;51.946;5.874;2023-11-22T07:19:59;2.80;93.50
43920;DHT22;29578;51.946;5.874;2023-11-22T07:22:26;2.80;93.40
43920;DHT22;29578;51.946;5.874;2023-11-22T07:24:52;2.90;93.40
43920;DHT22;29578;51.946;5.874;2023-11-22T07:27:19;2.90;93.40
43920;DHT22;29578;51.946;5.874;2023-11-22T07:29:45;2.90;93.40
43920;DHT22;29578;51.946;5.874;2023-11-22T07:32:11;3.00;93.40
43920;DHT22;29578;51.946;5.874;2023-11-22T07:34:38;3.00;93.40
43920;DHT22;29578;51.946;5.874;2023-11-22T07:37:06;3.00;93.40
43920;DHT22;29578;51.946;5.874;2023-11-22T07:39:33;3.10;93.40
43920;DHT22;29578;51.946;5.874;2023-11-22T07:42:02;3.10;93.40
43920;DHT22;29578;51.946;5.874;2023-11-22T07:44:28;3.10;93.40
43920;DHT22;29578;51.946;5.874;2023-11-22T07:46:58;3.20;93.30
43920;DHT22;29578;51.946;5.874;2023-11-22T07:49:25;3.30;93.30
43920;DHT22;29578;51.946;5.874;2023-11-22T07:51:51;3.30;93.30
43920;DHT22;29578;51.946;5.874;2023-11-22T07:54:19;3.30;93.30
43920;DHT22;29578;51.946;5.874;2023-11-22T07:56:48;3.30;93.30
43920;DHT22;29578;51.946;5.874;2023-11-22T07:59:14;3.40;93.30
43920;DHT22;29578;51.946;5.874;2023-11-22T08:05:47;3.50;93.30
43920;DHT22;29578;51.946;5.874;2023-11-22T08:08:13;3.60;93.20
43920;DHT22;29578;51.946;5.874;2023-11-22T08:10:39;3.60;93.10
43920;DHT22;29578;51.946;5.874;2023-11-22T08:13:05;3.70;93.10
43920;DHT22;29578;51.946;5.874;2023-11-22T08:15:31;3.80;93.10
43920;DHT22;29578;51.946;5.874;2023-11-22T08:17:58;3.80;93.10
43920;DHT22;29578;51.946;5.874;2023-11-22T08:20:25;3.80;93.10
43920;DHT22;29578;51.946;5.874;2023-11-22T08:26:38;3.90;93.00
43920;DHT22;29578;51.946;5.874;2023-11-22T08:32:18;4.00;93.00
43920;DHT22;29578;51.946;5.874;2023-11-22T08:34:50;4.00;93.00
43920;DHT22;29578;51.946;5.874;2023-11-22T08:37:40;4.20;93.00
43920;DHT22;29578;51.946;5.874;2023-11-22T08:40:25;4.10;92.90
43920;DHT22;29578;51.946;5.874;2023-11-22T08:43:10;4.20;92.90
43920;DHT22;29578;51.946;5.874;2023-11-22T08:46:17;4.30;92.90
43920;DHT22;29578;51.946;5.874;2023-11-22T08:48:49;4.30;92.90
43920;DHT22;29578;51.946;5.874;2023-11-22T08:51:35;4.40;92.90
43920;DHT22;29578;51.946;5.874;2023-11-22T08:54:06;4.50;93.20
43920;DHT22;29578;51.946;5.874;2023-11-22T08:56:37;4.50;92.80
43920;DHT22;29578;51.946;5.874;2023-11-22T08:59:07;4.60;92.80
43920;DHT22;29578;51.946;5.874;2023-11-22T09:01:36;4.60;92.80
43920;DHT22;29578;51.946;5.874;2023-11-22T09:04:08;4.50;92.80
43920;DHT22;29578;51.946;5.874;2023-11-22T09:06:38;4.60;92.80
43920;DHT22;29578;51.946;5.874;2023-11-22T09:09:06;4.60;92.80
43920;DHT22;29578;51.946;5.874;2023-11-22T09:11:34;4.60;92.80
43920;DHT22;29578;51.946;5.874;2023-11-22T09:14:00;4.70;92.80
43920;DHT22;29578;51.946;5.874;2023-11-22T09:16:56;4.70;92.80
43920;DHT22;29578;51.946;5.874;2023-11-22T09:19:36;4.80;92.90
43920;DHT22;29578;51.946;5.874;2023-11-22T09:22:19;4.70;92.80
43920;DHT22;29578;51.946;5.874;2023-11-22T09:31:24;4.90;92.70
43920;DHT22;29578;51.946;5.874;2023-11-22T09:33:51;4.90;92.70
43920;DHT22;29578;51.946;5.874;2023-11-22T09:36:19;5.00;92.70
43920;DHT22;29578;51.946;5.874;2023-11-22T09:39:03;4.90;92.70
43920;DHT22;29578;51.946;5.874;2023-11-22T09:41:36;5.00;92.70
43920;DHT22;29578;51.946;5.874;2023-11-22T09:44:01;5.10;92.80
43920;DHT22;29578;51.946;5.874;2023-11-22T09:46:52;5.10;92.70
43920;DHT22;29578;51.946;5.874;2023-11-22T09:49:56;5.10;92.70
43920;DHT22;29578;51.946;5.874;2023-11-22T09:52:33;5.30;92.70
43920;DHT22;29578;51.946;5.874;2023-11-22T09:55:08;5.30;92.60
43920;DHT22;29578;51.946;5.874;2023-11-22T09:57:45;5.30;92.90
43920;DHT22;29578;51.946;5.874;2023-11-22T10:00:26;5.40;92.60
43920;DHT22;29578;51.946;5.874;2023-11-22T10:03:04;5.50;92.70
43920;DHT22;29578;51.946;5.874;2023-11-22T10:12:47;5.60;92.50
43920;DHT22;29578;51.946;5.874;2023-11-22T10:15:23;5.50;92.40
43920;DHT22;29578;51.946;5.874;2023-11-22T10:18:46;5.60;92.60
43920;DHT22;29578;51.946;5.874;2023-11-22T10:22:08;5.60;92.60
43920;DHT22;29578;51.946;5.874;2023-11-22T10:24:42;5.50;92.70
43920;DHT22;29578;51.946;5.874;2023-11-22T10:27:18;5.60;92.70
43920;DHT22;29578;51.946;5.874;2023-11-22T10:29:48;5.70;92.60
43920;DHT22;29578;51.946;5.874;2023-11-22T10:32:21;5.70;92.60
43920;DHT22;29578;51.946;5.874;2023-11-22T10:47:52;6.00;92.50
43920;DHT22;29578;51.946;5.874;2023-11-22T10:57:13;6.00;92.50
43920;DHT22;29578;51.946;5.874;2023-11-22T11:00:12;6.10;92.50
43920;DHT22;29578;51.946;5.874;2023-11-22T11:10:07;6.20;92.40
43920;DHT22;29578;51.946;5.874;2023-11-22T11:12:41;6.30;92.40
43920;DHT22;29578;51.946;5.874;2023-11-22T11:15:09;6.30;92.50
43920;DHT22;29578;51.946;5.874;2023-11-22T11:17:38;6.20;92.30
43920;DHT22;29578;51.946;5.874;2023-11-22T11:20:05;6.30;92.40
43920;DHT22;29578;51.946;5.874;2023-11-22T11:22:32;6.20;92.30
43920;DHT22;29578;51.946;5.874;2023-11-22T11:25:02;6.20;92.50
43920;DHT22;29578;51.946;5.874;2023-11-22T11:27:32;6.30;92.50
43920;DHT22;29578;51.946;5.874;2023-11-22T11:29:58;6.40;92.40
43920;DHT22;29578;51.946;5.874;2023-11-22T11:44:12;6.60;92.30
43920;DHT22;29578;51.946;5.874;2023-11-22T11:58:15;6.40;92.20
43920;DHT22;29578;51.946;5.874;2023-11-22T12:01:17;6.40;92.30
43920;DHT22;29578;51.946;5.874;2023-11-22T12:03:55;6.30;92.30
43920;DHT22;29578;51.946;5.874;2023-11-22T12:06:24;6.30;92.20
43920;DHT22;29578;51.946;5.874;2023-11-22T12:08:49;6.40;92.30
43920;DHT22;29578;51.946;5.874;2023-11-22T12:11:15;6.40;92.30
43920;DHT22;29578;51.946;5.874;2023-11-22T12:13:44;6.40;92.20
43920;DHT22;29578;51.946;5.874;2023-11-22T12:20:13;6.50;92.20
43920;DHT22;29578;51.946;5.874;2023-11-22T12:28:58;6.40;92.20
43920;DHT22;29578;51.946;5.874;2023-11-22T12:31:24;6.40;92.20
43920;DHT22;29578;51.946;5.874;2023-11-22T12:37:10;6.50;92.10
43920;DHT22;29578;51.946;5.874;2023-11-22T12:44:25;6.50;92.00
43920;DHT22;29578;51.946;5.874;2023-11-22T12:54:51;6.60;91.80
43920;DHT22;29578;51.946;5.874;2023-11-22T12:58:03;6.60;91.80
43920;DHT22;29578;51.946;5.874;2023-11-22T13:00:46;6.70;91.80
43920;DHT22;29578;51.946;5.874;2023-11-22T13:03:49;6.80;91.70
43920;DHT22;29578;51.946;5.874;2023-11-22T13:06:21;6.90;91.70
43920;DHT22;29578;51.946;5.874;2023-11-22T13:09:09;6.90;91.60
43920;DHT22;29578;51.946;5.874;2023-11-22T13:11:48;7.00;91.50
43920;DHT22;29578;51.946;5.874;2023-11-22T13:14:50;7.00;91.50
43920;DHT22;29578;51.946;5.874;2023-11-22T13:17:27;7.00;91.40
43920;DHT22;29578;51.946;5.874;2023-11-22T13:20:06;6.90;91.30
43920;DHT22;29578;51.946;5.874;2023-11-22T13:27:12;6.80;91.60
43920;DHT22;29578;51.946;5.874;2023-11-22T13:29:46;6.60;91.60
43920;DHT22;29578;51.946;5.874;2023-11-22T13:32:37;6.60;91.70
43920;DHT22;29578;51.946;5.874;2023-11-22T13:36:04;6.60;91.70
43920;DHT22;29578;51.946;5.874;2023-11-22T13:39:04;6.60;91.70
43920;DHT22;29578;51.946;5.874;2023-11-22T14:00:14;6.50;91.80
43920;DHT22;29578;51.946;5.874;2023-11-22T14:09:17;6.50;91.80
43920;DHT22;29578;51.946;5.874;2023-11-22T14:11:48;6.50;91.80
43920;DHT22;29578;51.946;5.874;2023-11-22T14:14:16;6.40;91.90
43920;DHT22;29578;51.946;5.874;2023-11-22T14:16:45;6.50;91.80
43920;DHT22;29578;51.946;5.874;2023-11-22T14:19:12;6.50;91.80
43920;DHT22;29578;51.946;5.874;2023-11-22T14:21:38;6.50;91.80
43920;DHT22;29578;51.946;5.874;2023-11-22T14:24:06;6.50;91.90
43920;DHT22;29578;51.946;5.874;2023-11-22T14:26:36;6.50;91.80
43920;DHT22;29578;51.946;5.874;2023-11-22T14:29:02;6.50;91.80
43920;DHT22;29578;51.946;5.874;2023-11-22T14:31:31;6.40;91.80
43920;DHT22;29578;51.946;5.874;2023-11-22T14:34:16;6.40;91.80
43920;DHT22;29578;51.946;5.874;2023-11-22T14:37:02;6.40;91.80
43920;DHT22;29578;51.946;5.874;2023-11-22T14:39:28;6.40;91.80
43920;DHT22;29578;51.946;5.874;2023-11-22T14:42:15;6.30;91.80
43920;DHT22;29578;51.946;5.874;2023-11-22T14:44:43;6.40;91.80
43920;DHT22;29578;51.946;5.874;2023-11-22T14:47:17;6.40;91.80
43920;DHT22;29578;51.946;5.874;2023-11-22T14:49:52;6.50;91.80
43920;DHT22;29578;51.946;5.874;2023-11-22T14:52:45;6.40;91.80
43920;DHT22;29578;51.946;5.874;2023-11-22T14:55:13;6.40;91.80
43920;DHT22;29578;51.946;5.874;2023-11-22T14:57:47;6.40;91.80
43920;DHT22;29578;51.946;5.874;2023-11-22T15:00:31;6.40;91.80
43920;DHT22;29578;51.946;5.874;2023-11-22T15:02:56;6.40;91.80
43920;DHT22;29578;51.946;5.874;2023-11-22T15:05:22;6.40;91.80
43920;DHT22;29578;51.946;5.874;2023-11-22T15:11:08;6.40;91.80
43920;DHT22;29578;51.946;5.874;2023-11-22T15:13:44;6.40;91.80
43920;DHT22;29578;51.946;5.874;2023-11-22T15:19:44;6.40;91.80
43920;DHT22;29578;51.946;5.874;2023-11-22T15:22:16;6.30;91.80
43920;DHT22;29578;51.946;5.874;2023-11-22T15:25:10;6.30;91.80
43920;DHT22;29578;51.946;5.874;2023-11-22T15:28:01;6.30;91.80
43920;DHT22;29578;51.946;5.874;2023-11-22T15:30:48;6.30;91.80
43920;DHT22;29578;51.946;5.874;2023-11-22T15:33:22;6.30;91.80
43920;DHT22;29578;51.946;5.874;2023-11-22T15:35:53;6.30;91.80
43920;DHT22;29578;51.946;5.874;2023-11-22T15:38:48;6.20;91.80
43920;DHT22;29578;51.946;5.874;2023-11-22T15:41:36;6.20;91.90
43920;DHT22;29578;51.946;5.874;2023-11-22T15:44:33;6.20;91.90
43920;DHT22;29578;51.946;5.874;2023-11-22T15:47:28;6.20;91.90
43920;DHT22;29578;51.946;5.874;2023-11-22T15:53:07;6.20;91.90
43920;DHT22;29578;51.946;5.874;2023-11-22T15:55:38;6.00;91.90
43920;DHT22;29578;51.946;5.874;2023-11-22T15:58:04;5.90;92.00
43920;DHT22;29578;51.946;5.874;2023-11-22T16:00:30;5.90;92.00
43920;DHT22;29578;51.946;5.874;2023-11-22T16:02:56;5.90;92.10
43920;DHT22;29578;51.946;5.874;2023-11-22T16:05:21;5.80;92.10
43920;DHT22;29578;51.946;5.874;2023-11-22T16:07:49;5.80;92.20
43920;DHT22;29578;51.946;5.874;2023-11-22T16:10:15;5.80;92.10
43920;DHT22;29578;51.946;5.874;2023-11-22T16:12:42;5.80;92.20
43920;DHT22;29578;51.946;5.874;2023-11-22T16:15:08;5.80;92.20
43920;DHT22;29578;51.946;5.874;2023-11-22T16:17:37;5.80;92.20
43920;DHT22;29578;51.946;5.874;2023-11-22T16:20:03;5.80;92.20
43920;DHT22;29578;51.946;5.874;2023-11-22T16:22:40;5.70;92.20
43920;DHT22;29578;51.946;5.874;2023-11-22T16:25:15;5.70;92.20
43920;DHT22;29578;51.946;5.874;2023-11-22T16:27:48;5.70;92.20
43920;DHT22;29578;51.946;5.874;2023-11-22T16:30:14;5.60;92.10
43920;DHT22;29578;51.946;5.874;2023-11-22T16:32:41;5.60;92.20
43920;DHT22;29578;51.946;5.874;2023-11-22T16:35:08;5.60;92.20
43920;DHT22;29578;51.946;5.874;2023-11-22T16:37:33;5.60;92.20
43920;DHT22;29578;51.946;5.874;2023-11-22T16:39:59;5.70;92.20
43920;DHT22;29578;51.946;5.874;2023-11-22T16:42:33;5.60;92.20
43920;DHT22;29578;51.946;5.874;2023-11-22T16:44:59;5.70;92.20
43920;DHT22;29578;51.946;5.874;2023-11-22T16:47:25;5.60;92.20
43920;DHT22;29578;51.946;5.874;2023-11-22T16:49:51;5.60;92.20
43920;DHT22;29578;51.946;5.874;2023-11-22T16:52:17;5.60;92.10
43920;DHT22;29578;51.946;5.874;2023-11-22T16:54:44;5.60;92.10
43920;DHT22;29578;51.946;5.874;2023-11-22T16:57:10;5.70;92.20
43920;DHT22;29578;51.946;5.874;2023-11-22T16:59:38;5.70;92.10
43920;DHT22;29578;51.946;5.874;2023-11-22T17:02:06;5.70;92.10
43920;DHT22;29578;51.946;5.874;2023-11-22T17:04:32;5.70;92.10
43920;DHT22;29578;51.946;5.874;2023-11-22T17:06:57;5.70;92.10
43920;DHT22;29578;51.946;5.874;2023-11-22T17:09:25;5.80;92.10
43920;DHT22;29578;51.946;5.874;2023-11-22T17:11:51;5.80;92.10
43920;DHT22;29578;51.946;5.874;2023-11-22T17:14:16;5.70;92.10
43920;DHT22;29578;51.946;5.874;2023-11-22T17:16:42;5.70;92.10
43920;DHT22;29578;51.946;5.874;2023-11-22T17:19:08;5.70;92.00
43920;DHT22;29578;51.946;5.874;2023-11-22T17:21:34;5.70;92.10
43920;DHT22;29578;51.946;5.874;2023-11-22T17:24:00;5.80;92.10
43920;DHT22;29578;51.946;5.874;2023-11-22T17:26:26;5.80;92.10
43920;DHT22;29578;51.946;5.874;2023-11-22T17:28:52;5.70;92.00
43920;DHT22;29578;51.946;5.874;2023-11-22T17:31:17;5.70;92.00
43920;DHT22;29578;51.946;5.874;2023-11-22T17:33:43;5.80;92.10
43920;DHT22;29578;51.946;5.874;2023-11-22T17:36:09;5.70;92.10
43920;DHT22;29578;51.946;5.874;2023-11-22T17:38:35;5.80;92.10
43920;DHT22;29578;51.946;5.874;2023-11-22T17:41:00;5.70;92.10
43920;DHT22;29578;51.946;5.874;2023-11-22T17:43:26;5.70;92.10
43920;DHT22;29578;51.946;5.874;2023-11-22T17:45:52;5.70;92.10
43920;DHT22;29578;51.946;5.874;2023-11-22T17:48:17;5.60;92.10
43920;DHT22;29578;51.946;5.874;2023-11-22T17:50:43;5.70;92.10
43920;DHT22;29578;51.946;5.874;2023-11-22T17:53:09;5.60;92.00
43920;DHT22;29578;51.946;5.874;2023-11-22T17:55:35;5.70;92.00
43920;DHT22;29578;51.946;5.874;2023-11-22T17:58:24;5.70;92.00
43920;DHT22;29578;51.946;5.874;2023-11-22T18:00:50;5.70;92.10
43920;DHT22;29578;51.946;5.874;2023-11-22T18:03:16;5.70;92.10
43920;DHT22;29578;51.946;5.874;2023-11-22T18:05:42;5.80;92.10
43920;DHT22;29578;51.946;5.874;2023-11-22T18:08:10;5.70;92.10
43920;DHT22;29578;51.946;5.874;2023-11-22T18:10:39;5.70;92.10
43920;DHT22;29578;51.946;5.874;2023-11-22T18:13:05;5.60;92.10
43920;DHT22;29578;51.946;5.874;2023-11-22T18:15:33;5.70;92.10
43920;DHT22;29578;51.946;5.874;2023-11-22T18:18:04;5.80;92.10
43920;DHT22;29578;51.946;5.874;2023-11-22T18:20:30;5.70;92.10
43920;DHT22;29578;51.946;5.874;2023-11-22T18:22:55;5.70;92.10